Time;durP1;ratioP1;P1;durP2;ratioP2;P2;SDS_P1;SDS_P2;PMS_P1;PMS_P2;Temp;Humidity;BMP_temperature;BMP_pressure;BME280_temperature;BME280_humidity;BME280_pressure;Samples;Min_cycle;Max_cycle;Signal;HPM_P1;HPM_P2
2024/02/17 00:02:21;;;;;;;29.85;19.45;;;;;;;7.76;100.00;102319.34;5084762;28;20035;-70
2024/02/17 00:04:46;;;;;;;31.95;19.58;;;;;;;7.78;100.00;102325.56;5084656;28;20071;-70
2024/02/17 00:07:11;;;;;;;29.63;18.38;;;;;;;7.77;100.00;102329.00;5085467;28;20061;-71
2024/02/17 00:09:37;;;;;;;29.60;18.58;;;;;;;7.78;100.00;102333.44;5082983;28;20376;-74
2024/02/17 00:12:02;;;;;;;30.50;19.20;;;;;;;7.78;100.00;102336.09;5086243;28;20020;-79
2024/02/17 00:14:27;;;;;;;29.85;18.50;;;;;;;7.78;100.00;102340.47;5083317;28;20040;-70
2024/02/17 00:16:53;;;;;;;30.30;17.92;;;;;;;7.77;100.00;102339.53;5085168;28;20458;-70
2024/02/17 00:19:18;;;;;;;29.85;18.63;;;;;;;7.77;100.00;102339.53;5084352;28;20032;-70
2024/02/17 00:21:43;;;;;;;29.92;18.40;;;;;;;7.79;100.00;102336.97;5083352;28;20123;-70
2024/02/17 00:24:09;;;;;;;30.10;18.95;;;;;;;7.76;100.00;102342.13;5085936;28;20057;-70
2024/02/17 00:26:34;;;;;;;30.20;18.48;;;;;;;7.75;100.00;102346.50;5082541;28;20467;-73
2024/02/17 00:29:00;;;;;;;29.52;17.98;;;;;;;7.73;100.00;102347.25;5085932;28;20059;-70
2024/02/17 00:31:25;;;;;;;30.50;19.33;;;;;;;7.69;100.00;102348.88;5083356;28;20032;-71
2024/02/17 00:33:52;;;;;;;29.35;18.42;;;;;;;7.62;100.00;102346.84;5084385;28;20470;-72
2024/02/17 00:36:17;;;;;;;29.55;18.88;;;;;;;7.57;100.00;102354.56;5084821;28;20036;-70
2024/02/17 00:38:44;;;;;;;30.73;18.95;;;;;;;7.56;100.00;102350.13;5083473;28;20074;-70
2024/02/17 00:41:09;;;;;;;31.30;19.02;;;;;;;7.56;100.00;102352.75;5085755;28;20035;-82
2024/02/17 00:43:34;;;;;;;32.03;19.45;;;;;;;7.56;100.00;102355.38;5065013;28;20039;-84
2024/02/17 00:46:00;;;;;;;32.58;19.30;;;;;;;7.58;100.00;102355.44;5086061;28;20030;-85
2024/02/17 00:48:26;;;;;;;30.65;19.20;;;;;;;7.59;100.00;102363.41;5083614;28;20044;-84
2024/02/17 00:50:52;;;;;;;30.40;19.67;;;;;;;7.61;100.00;102366.09;5067072;28;20033;-76
2024/02/17 00:53:17;;;;;;;33.78;20.63;;;;;;;7.62;100.00;102366.16;5084672;28;20066;-74
2024/02/17 00:55:43;;;;;;;33.00;20.65;;;;;;;7.64;100.00;102372.38;5083408;28;20020;-79
2024/02/17 00:58:08;;;;;;;31.70;20.20;;;;;;;7.67;100.00;102374.22;5085847;28;20418;-73
2024/02/17 01:00:33;;;;;;;31.52;20.00;;;;;;;7.69;100.00;102367.31;5082337;28;20039;-74
2024/02/17 01:02:59;;;;;;;32.28;20.52;;;;;;;7.71;100.00;102367.38;5084817;28;20039;-78
2024/02/17 01:05:24;;;;;;;30.35;19.55;;;;;;;7.73;100.00;102370.94;5083375;28;20036;-73
2024/02/17 01:07:50;;;;;;;32.28;20.80;;;;;;;7.75;100.00;102375.44;5083600;28;20033;-73
2024/02/17 01:10:16;;;;;;;31.95;20.25;;;;;;;7.77;100.00;102371.13;5066141;28;20045;-81
2024/02/17 01:12:41;;;;;;;32.22;20.75;;;;;;;7.78;100.00;102367.66;5082623;28;20055;-78
2024/02/17 01:15:08;;;;;;;32.15;20.52;;;;;;;7.82;100.00;102371.31;5085192;28;20059;-70
2024/02/17 01:17:33;;;;;;;34.08;21.42;;;;;;;7.83;100.00;102376.66;5081870;28;20040;-72
2024/02/17 01:19:59;;;;;;;32.90;21.58;;;;;;;7.86;100.00;102370.59;5084374;28;20036;-70
2024/02/17 01:22:24;;;;;;;32.38;20.85;;;;;;;7.89;100.00;102375.97;5082854;28;20025;-71
2024/02/17 01:24:50;;;;;;;34.72;21.77;;;;;;;7.90;100.00;102376.91;5083307;28;20118;-71
2024/02/17 01:27:15;;;;;;;33.97;21.02;;;;;;;7.95;100.00;102381.53;5065890;28;20039;-76
2024/02/17 01:29:41;;;;;;;33.92;21.67;;;;;;;7.97;100.00;102377.19;5081797;28;20025;-79
2024/02/17 01:32:06;;;;;;;33.42;21.67;;;;;;;7.99;100.00;102382.53;5085008;28;20048;-77
2024/02/17 01:34:32;;;;;;;31.83;21.23;;;;;;;8.06;100.00;102383.69;5081548;28;20020;-85
2024/02/17 01:36:57;;;;;;;34.88;21.60;;;;;;;8.08;100.00;102392.53;5084076;28;20103;-84
2024/02/17 01:39:27;;;;;;;31.77;21.15;;;;;;;8.08;100.00;102390.81;5082716;28;20118;-82
2024/02/17 01:41:55;;;;;;;32.55;21.27;;;;;;;8.08;100.00;102398.72;5083483;28;20025;-83
2024/02/17 01:44:21;;;;;;;34.60;21.73;;;;;;;8.09;100.00;102394.31;5064664;28;20027;-71
2024/02/17 01:46:48;;;;;;;34.65;22.17;;;;;;;8.11;100.00;102400.53;5082476;28;20112;-77
2024/02/17 01:49:14;;;;;;;33.45;21.63;;;;;;;8.12;100.00;102408.50;5083393;28;20033;-80
2024/02/17 01:51:40;;;;;;;34.00;21.48;;;;;;;8.13;100.00;102404.16;5081298;28;20111;-84
2024/02/17 01:54:06;;;;;;;32.78;21.88;;;;;;;8.14;100.00;102403.28;5066525;28;20051;-84
2024/02/17 01:56:32;;;;;;;32.75;21.52;;;;;;;8.14;100.00;102409.47;5081514;28;20028;-84
2024/02/17 01:58:58;;;;;;;32.63;22.13;;;;;;;8.17;100.00;102413.97;5084270;28;20035;-83
2024/02/17 02:01:25;;;;;;;32.40;21.67;;;;;;;8.14;100.00;102412.13;5082563;28;20509;-84
2024/02/17 02:03:50;;;;;;;32.30;22.13;;;;;;;8.15;100.00;102410.38;5082836;28;20064;-84
2024/02/17 02:06:20;;;;;;;34.40;22.20;;;;;;;8.19;100.00;102418.44;5083678;28;20111;-71
2024/02/17 02:08:48;;;;;;;32.97;22.27;;;;;;;8.19;100.00;102418.44;5082268;28;20085;-71
2024/02/17 02:11:13;;;;;;;33.78;22.38;;;;;;;8.20;100.00;102424.63;5083745;28;20036;-71
2024/02/17 02:13:39;;;;;;;32.78;21.48;;;;;;;8.20;100.00;102424.63;5080900;28;20547;-75
2024/02/17 02:16:07;;;;;;;34.85;22.35;;;;;;;8.20;100.00;102429.91;5084067;28;20146;-71
2024/02/17 02:18:33;;;;;;;33.75;22.30;;;;;;;8.18;100.00;102437.75;5080619;28;20033;-70
2024/02/17 02:20:59;;;;;;;33.63;22.33;;;;;;;8.20;100.00;102445.72;5083467;28;20036;-74
2024/02/17 02:23:24;;;;;;;34.00;22.17;;;;;;;8.17;100.00;102445.59;5081902;28;20028;-70
2024/02/17 02:25:54;;;;;;;34.00;22.88;;;;;;;8.17;100.00;102446.47;5083128;28;20029;-85
2024/02/17 02:28:19;;;;;;;33.97;21.85;;;;;;;8.15;100.00;102456.03;5083575;28;20020;-81
2024/02/17 02:30:45;;;;;;;32.95;22.55;;;;;;;8.16;100.00;102456.94;5064665;28;20024;-84
2024/02/17 02:33:10;;;;;;;34.72;23.17;;;;;;;8.16;100.00;102456.94;5085010;28;20035;-85
2024/02/17 02:35:36;;;;;;;33.20;22.60;;;;;;;8.15;100.00;102457.78;5082094;28;20032;-84
2024/02/17 02:38:02;;;;;;;35.58;22.80;;;;;;;8.14;100.00;102458.59;5084257;28;20115;-85
2024/02/17 02:40:28;;;;;;;33.05;22.05;;;;;;;8.14;100.00;102461.25;5081114;28;20024;-84
2024/02/17 02:42:53;;;;;;;32.85;22.27;;;;;;;8.13;100.00;102465.63;5082566;28;20036;-84
2024/02/17 02:45:19;;;;;;;32.42;22.05;;;;;;;8.13;100.00;102470.91;5082787;28;20406;-84
2024/02/17 02:47:46;;;;;;;33.17;22.02;;;;;;;8.13;100.00;102485.81;5081200;28;20120;-85
2024/02/17 02:50:12;;;;;;;34.58;23.08;;;;;;;8.13;100.00;102480.53;5083512;28;20067;-85
2024/02/17 02:52:37;;;;;;;33.17;22.30;;;;;;;8.13;100.00;102480.53;5080568;28;20044;-86
2024/02/17 02:55:03;;;;;;;34.72;22.27;;;;;;;8.12;100.00;102473.47;5065580;28;20028;-85
2024/02/17 02:57:29;;;;;;;33.58;23.20;;;;;;;8.12;100.00;102477.00;5081359;28;20044;-73
2024/02/17 02:59:54;;;;;;;33.45;22.35;;;;;;;8.12;100.00;102482.25;5082470;28;20056;-71
2024/02/17 03:02:19;;;;;;;34.03;21.98;;;;;;;8.10;100.00;102475.16;5082157;28;20045;-71
2024/02/17 03:04:45;;;;;;;31.92;22.42;;;;;;;8.11;100.00;102479.56;5081246;28;20084;-84
2024/02/17 03:07:11;;;;;;;34.50;22.95;;;;;;;8.10;100.00;102490.97;5065448;28;20412;-71
2024/02/17 03:09:36;;;;;;;33.67;22.17;;;;;;;8.11;100.00;102496.28;5062248;28;20103;-71
2024/02/17 03:12:03;;;;;;;33.33;22.10;;;;;;;8.11;100.00;102482.19;5065748;28;20028;-70
2024/02/17 03:14:28;;;;;;;32.88;21.75;;;;;;;8.10;100.00;102489.22;5062999;28;20097;-70
2024/02/17 03:16:54;;;;;;;32.70;22.15;;;;;;;8.12;100.00;102491.91;5082439;28;20028;-70
2024/02/17 03:19:19;;;;;;;34.20;22.13;;;;;;;8.13;100.00;102493.72;5082197;28;20535;-70
2024/02/17 03:21:44;;;;;;;31.42;21.13;;;;;;;8.13;100.00;102501.63;5081054;28;20037;-85
2024/02/17 03:24:10;;;;;;;33.55;21.05;;;;;;;8.14;100.00;102500.75;5079533;28;20024;-84
2024/02/17 03:26:36;;;;;;;32.50;20.92;;;;;;;8.15;100.00;102492.91;5083576;28;20429;-80
2024/02/17 03:29:02;;;;;;;31.15;21.17;;;;;;;8.19;100.00;102507.13;5083819;28;20035;-85
2024/02/17 03:31:27;;;;;;;32.55;20.52;;;;;;;8.20;100.00;102506.31;5086059;28;20373;-84
2024/02/17 03:33:54;;;;;;;31.55;19.95;;;;;;;8.20;100.00;102514.19;5085288;28;20027;-71
2024/02/17 03:36:19;;;;;;;30.75;19.90;;;;;;;8.20;100.00;102515.09;5084797;28;20111;-79
2024/02/17 03:38:45;;;;;;;33.25;20.02;;;;;;;8.25;100.00;102522.28;5086352;28;20546;-77
2024/02/17 03:41:10;;;;;;;30.05;18.42;;;;;;;8.29;100.00;102529.50;5083502;28;20048;-71
2024/02/17 03:43:36;;;;;;;31.92;18.77;;;;;;;8.29;100.00;102526.84;5086744;28;20028;-71
2024/02/17 03:46:01;;;;;;;30.90;18.30;;;;;;;8.31;100.00;102531.31;5083789;28;20028;-73
2024/02/17 03:48:27;;;;;;;28.98;17.85;;;;;;;8.30;100.00;102526.91;5067621;28;20127;-74
2024/02/17 03:50:52;;;;;;;28.30;17.77;;;;;;;8.31;100.00;102533.06;5084892;28;20398;-72
2024/02/17 03:53:19;;;;;;;29.27;17.98;;;;;;;8.31;100.00;102536.59;5084642;28;20021;-79
2024/02/17 03:55:44;;;;;;;29.13;17.02;;;;;;;8.31;100.00;102541.84;5085834;28;20513;-76
2024/02/17 03:58:09;;;;;;;30.30;17.35;;;;;;;8.32;100.00;102543.66;5083151;28;20060;-73
2024/02/17 04:00:35;;;;;;;29.02;16.75;;;;;;;8.33;100.00;102537.56;5086590;28;20083;-71
2024/02/17 04:03:01;;;;;;;28.50;16.15;;;;;;;8.35;100.00;102548.16;5083808;28;20029;-70
2024/02/17 04:05:26;;;;;;;28.00;16.63;;;;;;;8.34;100.00;102542.00;5085449;28;20387;-70
2024/02/17 04:07:52;;;;;;;28.58;16.70;;;;;;;8.34;100.00;102544.66;5084898;28;20024;-71
2024/02/17 04:10:17;;;;;;;27.40;15.93;;;;;;;8.34;100.00;102546.38;5083914;28;20029;-71
2024/02/17 04:12:42;;;;;;;28.35;15.82;;;;;;;8.32;100.00;102541.03;5085794;28;20115;-79
2024/02/17 04:15:08;;;;;;;29.00;16.13;;;;;;;8.34;100.00;102554.28;5083586;28;20471;-85
2024/02/17 04:17:34;;;;;;;27.02;15.55;;;;;;;8.34;100.00;102546.38;5086867;28;20525;-83
2024/02/17 04:19:59;;;;;;;28.08;15.35;;;;;;;8.37;100.00;102555.31;5084007;28;20150;-83
2024/02/17 04:22:25;;;;;;;27.45;15.70;;;;;;;8.36;100.00;102561.41;5085352;28;20099;-83
2024/02/17 04:24:50;;;;;;;27.42;15.45;;;;;;;8.35;100.00;102561.34;5085279;28;20034;-84
2024/02/17 04:27:16;;;;;;;26.80;15.10;;;;;;;8.36;100.00;102563.16;5051190;28;20403;-83
2024/02/17 04:29:41;;;;;;;26.48;14.52;;;;;;;8.38;100.00;102572.91;5086130;28;20383;-73
2024/02/17 04:32:07;;;;;;;26.30;14.38;;;;;;;8.41;100.00;102576.50;5064463;28;20119;-77
2024/02/17 04:34:32;;;;;;;25.63;14.50;;;;;;;8.41;100.00;102579.16;5086034;28;20032;-81
2024/02/17 04:36:58;;;;;;;27.55;14.45;;;;;;;8.40;100.00;102579.97;5065099;28;20028;-72
2024/02/17 04:39:23;;;;;;;26.73;14.18;;;;;;;8.41;100.00;102585.31;5083581;28;20032;-71
2024/02/17 04:41:49;;;;;;;26.98;14.32;;;;;;;8.41;100.00;102580.03;5084644;28;20066;-71
2024/02/17 04:44:14;;;;;;;25.52;14.55;;;;;;;8.40;100.00;102587.88;5082675;28;20056;-70
2024/02/17 04:46:39;;;;;;;25.75;13.93;;;;;;;8.38;100.00;102586.06;5085646;28;20035;-70
2024/02/17 04:49:05;;;;;;;25.67;14.50;;;;;;;8.36;100.00;102585.13;5082098;28;20434;-70
2024/02/17 04:51:30;;;;;;;26.08;13.93;;;;;;;8.41;100.00;102590.59;5084868;28;20068;-70
2024/02/17 04:53:56;;;;;;;25.65;14.18;;;;;;;8.38;100.00;102596.63;5083285;28;20509;-72
2024/02/17 04:56:21;;;;;;;26.75;14.10;;;;;;;8.40;100.00;102598.44;5068231;28;20035;-70
2024/02/17 04:58:46;;;;;;;26.48;13.73;;;;;;;8.42;100.00;102596.75;5082872;28;20052;-71
2024/02/17 05:01:12;;;;;;;26.90;13.82;;;;;;;8.42;100.00;102600.28;5085389;28;20079;-71
2024/02/17 05:03:37;;;;;;;25.15;14.23;;;;;;;8.42;100.00;102604.66;5064159;28;20028;-72
2024/02/17 05:06:03;;;;;;;27.33;13.80;;;;;;;8.38;100.00;102609.78;5085108;28;20031;-82
2024/02/17 05:08:29;;;;;;;26.45;13.50;;;;;;;8.41;100.00;102623.94;5083356;28;20593;-74
2024/02/17 05:10:54;;;;;;;25.88;13.30;;;;;;;8.41;100.00;102616.94;5083948;28;20112;-74
2024/02/17 05:13:20;;;;;;;26.38;13.23;;;;;;;8.42;100.00;102617.81;5065899;28;20059;-70
2024/02/17 05:15:45;;;;;;;25.52;13.15;;;;;;;8.40;100.00;102628.31;5064453;28;20063;-71
2024/02/17 05:18:11;;;;;;;27.63;14.25;;;;;;;8.41;100.00;102634.50;5085064;28;20050;-70
2024/02/17 05:20:36;;;;;;;26.95;14.00;;;;;;;8.38;100.00;102640.53;5081991;28;20120;-70
2024/02/17 05:23:02;;;;;;;26.00;14.35;;;;;;;8.37;100.00;102644.00;5066743;28;20111;-85
2024/02/17 05:25:27;;;;;;;25.48;13.85;;;;;;;8.35;100.00;102650.94;5082793;28;20089;-85
2024/02/17 05:27:52;;;;;;;26.35;14.02;;;;;;;8.32;100.00;102649.06;5083160;28;20025;-84
2024/02/17 05:30:18;;;;;;;27.48;14.38;;;;;;;8.31;100.00;102652.53;5083915;28;20039;-81
2024/02/17 05:32:44;;;;;;;25.80;14.15;;;;;;;8.33;100.00;102658.78;5081562;28;20025;-71
2024/02/17 05:35:09;;;;;;;26.02;13.88;;;;;;;8.31;100.00;102656.91;5067246;28;20107;-72
2024/02/17 05:37:35;;;;;;;25.02;13.75;;;;;;;8.32;100.00;102667.53;5063439;28;20123;-70
2024/02/17 05:40:01;;;;;;;26.52;14.23;;;;;;;8.34;100.00;102664.94;5084096;28;20489;-71
2024/02/17 05:42:27;;;;;;;25.80;13.90;;;;;;;8.32;100.00;102667.53;5082601;28;20042;-73
2024/02/17 05:44:52;;;;;;;26.45;14.00;;;;;;;8.31;100.00;102668.34;5082704;28;20511;-73
2024/02/17 05:47:18;;;;;;;25.73;13.80;;;;;;;8.33;100.00;102678.94;5065512;28;20110;-71
2024/02/17 05:49:45;;;;;;;25.95;14.30;;;;;;;8.33;100.00;102679.88;5080699;28;20079;-72
2024/02/17 05:52:10;;;;;;;26.67;14.35;;;;;;;8.31;100.00;102680.63;5084535;28;20032;-73
2024/02/17 05:54:36;;;;;;;27.48;14.52;;;;;;;8.29;100.00;102672.66;5081476;28;20050;-70
2024/02/17 05:57:01;;;;;;;25.48;14.20;;;;;;;8.29;100.00;102688.47;5084361;28;20036;-71
2024/02/17 05:59:26;;;;;;;26.90;14.45;;;;;;;8.26;100.00;102688.34;5082793;28;20039;-70
2024/02/17 06:01:52;;;;;;;25.52;14.40;;;;;;;8.26;100.00;102692.72;5083047;28;20113;-82
2024/02/17 06:04:17;;;;;;;26.65;14.80;;;;;;;8.25;100.00;102702.34;5084854;28;20056;-86
2024/02/17 06:06:42;;;;;;;26.20;14.10;;;;;;;8.26;100.00;102698.00;5082357;28;20028;-85
2024/02/17 06:09:08;;;;;;;26.58;14.52;;;;;;;8.26;100.00;102701.53;5085790;28;20086;-84
2024/02/17 06:11:33;;;;;;;26.77;14.35;;;;;;;8.27;100.00;102703.31;5064370;28;20028;-83
2024/02/17 06:13:59;;;;;;;26.98;14.35;;;;;;;8.28;100.00;102704.22;5083747;28;20471;-80
2024/02/17 06:16:27;;;;;;;27.88;13.73;;;;;;;8.27;100.00;102708.59;5082882;28;20072;-75
2024/02/17 06:21:37;;;;;;;28.42;14.05;;;;;;;8.26;100.00;102708.53;5081583;28;20105;-75
2024/02/17 06:24:03;;;;;;;27.75;14.25;;;;;;;8.24;100.00;102718.09;5084055;28;20463;-73
2024/02/17 06:26:30;;;;;;;28.27;14.40;;;;;;;8.20;100.00;102715.31;5082432;28;20028;-83
2024/02/17 06:28:59;;;;;;;26.48;14.30;;;;;;;8.22;100.00;102718.03;5083273;28;20025;-71
2024/02/17 06:31:24;;;;;;;27.02;14.02;;;;;;;8.21;100.00;102726.75;5082338;28;20035;-75
2024/02/17 06:33:51;;;;;;;24.40;13.30;;;;;;;8.21;100.00;102729.38;5082220;28;20025;-84
2024/02/17 06:36:17;;;;;;;25.40;13.90;;;;;;;8.24;100.00;102726.88;5083533;28;20039;-84
2024/02/17 06:38:42;;;;;;;26.85;13.98;;;;;;;8.22;100.00;102728.56;5080649;28;20090;-82
2024/02/17 06:41:11;;;;;;;28.20;14.40;;;;;;;8.22;100.00;102738.22;5066180;28;20513;-83
2024/02/17 06:43:37;;;;;;;25.35;13.90;;;;;;;8.23;100.00;102746.19;5080741;28;20032;-82
2024/02/17 06:46:04;;;;;;;26.05;13.30;;;;;;;8.22;100.00;102739.09;5083332;28;20352;-84
2024/02/17 06:48:30;;;;;;;25.13;13.38;;;;;;;8.23;100.00;102735.63;5081627;28;20121;-74
2024/02/17 06:50:55;;;;;;;27.25;14.27;;;;;;;8.20;100.00;102739.03;5082552;28;20032;-73
2024/02/17 06:53:21;;;;;;;25.85;13.55;;;;;;;8.21;100.00;102747.81;5064397;28;20028;-71
2024/02/17 06:55:47;;;;;;;27.30;13.80;;;;;;;8.22;100.00;102748.75;5081182;28;20025;-71
2024/02/17 06:58:13;;;;;;;27.33;14.02;;;;;;;8.22;100.00;102748.75;5065671;28;20180;-70
2024/02/17 07:00:38;;;;;;;26.20;13.68;;;;;;;8.21;100.00;102753.09;5080276;28;20033;-71
2024/02/17 07:03:04;;;;;;;27.17;14.40;;;;;;;8.20;100.00;102756.59;5087136;28;20038;-70
2024/02/17 07:05:31;;;;;;;27.00;14.38;;;;;;;8.19;100.00;102762.69;5085103;28;20036;-74
2024/02/17 07:07:57;;;;;;;26.13;14.10;;;;;;;8.20;100.00;102768.00;5068082;28;20113;-70
2024/02/17 07:10:22;;;;;;;25.25;13.93;;;;;;;8.21;100.00;102776.81;5086241;28;20113;-79
2024/02/17 07:12:47;;;;;;;26.15;14.18;;;;;;;8.22;100.00;102770.72;5066634;28;20025;-75
2024/02/17 07:15:13;;;;;;;26.40;14.18;;;;;;;8.23;100.00;102782.16;5087448;28;20062;-73
2024/02/17 07:17:38;;;;;;;26.20;14.27;;;;;;;8.22;100.00;102775.09;5083912;28;20028;-81
2024/02/17 07:20:05;;;;;;;27.30;13.88;;;;;;;8.25;100.00;102785.78;5086860;28;20039;-80
2024/02/17 07:22:30;;;;;;;26.45;13.60;;;;;;;8.24;100.00;102795.38;5084419;28;20501;-74
2024/02/17 07:24:56;;;;;;;25.23;13.85;;;;;;;8.26;100.00;102803.41;5085983;28;20029;-72
2024/02/17 07:27:22;;;;;;;26.25;14.10;;;;;;;8.28;100.00;102801.72;5081857;28;20090;-71
2024/02/17 07:29:48;;;;;;;25.10;13.65;;;;;;;8.27;100.00;102811.38;5088295;28;20029;-71
2024/02/17 07:32:14;;;;;;;26.65;13.65;;;;;;;8.29;100.00;102821.97;5084471;28;20052;-73
2024/02/17 07:34:41;;;;;;;25.05;14.00;;;;;;;8.27;100.00;102819.28;5087554;28;20870;-71
2024/02/17 07:37:07;;;;;;;26.23;14.15;;;;;;;8.31;100.00;102829.09;5084191;28;20467;-85
2024/02/17 07:39:35;;;;;;;26.13;13.90;;;;;;;8.32;100.00;102832.66;5086039;28;20027;-74
2024/02/17 07:42:01;;;;;;;26.98;13.77;;;;;;;8.34;100.00;102838.88;5067222;28;20047;-70
2024/02/17 07:44:26;;;;;;;26.20;13.60;;;;;;;8.34;100.00;102849.41;5085658;28;20024;-72
2024/02/17 07:46:52;;;;;;;27.58;14.10;;;;;;;8.39;100.00;102847.91;5086606;28;20055;-71
2024/02/17 07:49:17;;;;;;;26.60;14.07;;;;;;;8.40;100.00;102848.78;5084173;28;20405;-76
2024/02/17 07:51:45;;;;;;;25.98;13.80;;;;;;;8.42;100.00;102855.94;5087555;28;20039;-72
2024/02/17 07:54:11;;;;;;;26.10;13.90;;;;;;;8.44;100.00;102861.28;5083226;28;20077;-74
2024/02/17 07:56:37;;;;;;;25.80;13.27;;;;;;;8.47;100.00;102872.00;5065879;28;20020;-71
2024/02/17 07:59:03;;;;;;;27.20;13.18;;;;;;;8.47;100.00;102867.63;5083775;28;20032;-75
2024/02/17 08:01:30;;;;;;;26.33;13.27;;;;;;;8.51;100.00;102873.94;5085636;28;20029;-73
2024/02/17 08:03:58;;;;;;;27.25;12.95;;;;;;;8.53;100.00;102880.19;5059941;28;20032;-78
2024/02/17 08:06:27;;;;;;;26.42;12.90;;;;;;;8.54;100.00;102887.25;5086189;28;20024;-79
2024/02/17 08:08:52;;;;;;;26.83;13.45;;;;;;;8.58;100.00;102886.56;5086250;28;20024;-73
2024/02/17 08:11:18;;;;;;;26.95;12.98;;;;;;;8.61;100.00;102881.44;5084847;28;20021;-76
2024/02/17 08:13:43;;;;;;;24.67;12.57;;;;;;;8.64;100.00;102880.69;5086634;28;20040;-74
2024/02/17 08:16:09;;;;;;;25.48;13.02;;;;;;;8.68;100.00;102887.91;5083628;28;20414;-74
2024/02/17 08:18:35;;;;;;;25.75;13.00;;;;;;;8.71;100.00;102883.66;5086063;28;20115;-82
2024/02/17 08:21:02;;;;;;;27.05;12.52;;;;;;;8.76;100.00;102885.59;5084823;28;20097;-85
2024/02/17 08:23:28;;;;;;;25.23;12.38;;;;;;;8.78;100.00;102902.38;5083277;28;20353;-76
2024/02/17 08:25:56;;;;;;;25.65;12.20;;;;;;;8.80;100.00;102898.97;5084214;28;20059;-80
2024/02/17 08:28:22;;;;;;;24.38;11.77;;;;;;;8.83;100.00;102906.13;5086654;28;20482;-85
2024/02/17 08:30:49;;;;;;;25.42;12.27;;;;;;;8.85;100.00;102905.38;5083416;28;20028;-74
2024/02/17 08:33:15;;;;;;;25.38;12.43;;;;;;;8.85;100.00;102912.34;5086424;28;20024;-74
2024/02/17 08:35:41;;;;;;;25.02;12.30;;;;;;;8.88;100.00;102917.75;5082750;28;20359;-85
2024/02/17 08:38:07;;;;;;;24.55;12.32;;;;;;;8.88;100.00;102915.13;5084192;28;20028;-85
2024/02/17 08:40:33;;;;;;;26.08;12.65;;;;;;;8.93;100.00;102920.59;5085977;28;20035;-82
2024/02/17 08:43:05;;;;;;;25.20;12.43;;;;;;;8.96;100.00;102915.50;5085446;28;20036;-86
2024/02/17 08:45:30;;;;;;;24.98;12.52;;;;;;;8.97;100.00;102926.09;5085777;28;20028;-85
2024/02/17 08:47:56;;;;;;;24.75;12.70;;;;;;;9.00;100.00;102928.88;5064013;28;20025;-85
2024/02/17 08:50:21;;;;;;;25.75;12.55;;;;;;;9.01;100.00;102935.03;5083381;28;20107;-85
2024/02/17 08:52:47;;;;;;;25.55;12.00;;;;;;;9.02;100.00;102934.22;5086599;28;20051;-82
2024/02/17 08:55:13;;;;;;;25.70;12.43;;;;;;;9.06;100.00;102944.06;5065237;28;20494;-84
2024/02/17 08:57:38;;;;;;;27.60;12.20;;;;;;;9.08;100.00;102935.38;5086312;28;20171;-73
2024/02/17 09:00:05;;;;;;;24.98;11.57;;;;;;;9.13;100.00;102934.69;5083351;28;20058;-77
2024/02/17 09:02:31;;;;;;;25.48;12.00;;;;;;;9.20;100.00;102937.66;5084428;28;20032;-76
2024/02/17 09:04:57;;;;;;;25.95;11.52;;;;;;;9.21;100.00;102939.44;5084283;28;20023;-81
2024/02/17 09:07:22;;;;;;;24.58;11.40;;;;;;;9.26;100.00;102942.28;5086094;28;20479;-70
2024/02/17 09:09:54;;;;;;;25.58;11.52;;;;;;;9.32;100.00;102942.56;5082173;28;20085;-70
2024/02/17 09:12:20;;;;;;;23.73;11.07;;;;;;;9.34;100.00;102943.53;5085056;28;20107;-70
2024/02/17 09:14:49;;;;;;;24.65;11.75;;;;;;;9.35;100.00;102941.78;5081800;28;20031;-71
2024/02/17 09:17:16;;;;;;;25.35;11.20;;;;;;;9.38;100.00;102952.50;5081898;28;20078;-70
2024/02/17 09:19:41;;;;;;;23.98;10.98;;;;;;;9.41;100.00;102961.44;5081711;28;20044;-70
2024/02/17 09:22:07;;;;;;;26.02;11.25;;;;;;;9.40;100.00;102959.63;5084324;28;20066;-72
2024/02/17 09:24:32;;;;;;;24.60;11.38;;;;;;;9.49;100.00;102971.41;5082928;28;20028;-71
2024/02/17 09:27:00;;;;;;;24.55;11.30;;;;;;;9.47;100.00;102957.25;5083156;28;20028;-70
2024/02/17 09:29:29;;;;;;;25.38;11.48;;;;;;;9.53;100.00;102968.06;5083511;28;20028;-78
2024/02/17 09:31:55;;;;;;;23.67;11.20;;;;;;;9.56;100.00;102960.28;5082549;28;20426;-72
2024/02/17 09:34:20;;;;;;;25.85;11.05;;;;;;;9.58;100.00;102970.06;5084441;28;20028;-70
2024/02/17 09:36:47;;;;;;;24.98;11.50;;;;;;;9.63;100.00;102969.38;5081100;28;20036;-71
2024/02/17 09:39:13;;;;;;;25.95;11.50;;;;;;;9.64;100.00;102977.34;5081507;28;20097;-74
2024/02/17 09:41:39;;;;;;;26.10;11.73;;;;;;;9.62;100.00;102983.41;5066879;28;20076;-71
2024/02/17 09:44:05;;;;;;;26.60;11.65;;;;;;;9.69;100.00;102977.53;5081973;28;20101;-78
2024/02/17 09:46:30;;;;;;;25.23;11.45;;;;;;;9.71;100.00;102982.06;5083034;28;20025;-71
2024/02/17 09:49:00;;;;;;;26.27;11.88;;;;;;;9.75;100.00;102980.44;5083282;28;20040;-81
2024/02/17 09:51:26;;;;;;;25.70;11.23;;;;;;;9.81;100.00;102991.25;5082377;28;20044;-78
2024/02/17 09:53:53;;;;;;;25.08;11.30;;;;;;;9.87;100.00;102983.59;5084367;28;20028;-77
2024/02/17 09:56:19;;;;;;;25.40;11.68;;;;;;;9.90;100.00;102982.81;5081611;28;20039;-78
2024/02/17 09:58:44;;;;;;;23.73;11.35;;;;;;;9.91;100.00;102984.63;5084770;28;20024;-72
2024/02/17 10:01:11;;;;;;;24.98;11.95;;;;;;;9.89;100.00;102987.19;5063097;28;20507;-75
2024/02/17 10:03:40;;;;;;;25.63;12.07;;;;;;;9.95;100.00;102982.16;5066884;28;20028;-84
2024/02/17 10:06:12;;;;;;;22.95;10.75;;;;;;;9.92;100.00;102986.44;5083314;28;20059;-81
2024/02/17 10:08:39;;;;;;;24.20;11.82;;;;;;;9.98;100.00;102984.03;5085345;28;20446;-85
2024/02/17 10:11:06;;;;;;;23.92;10.93;;;;;;;10.03;100.00;102973.63;5084006;28;20035;-86
2024/02/17 10:13:32;;;;;;;23.65;11.20;;;;;;;10.03;100.00;102971.91;5084597;28;20029;-85
2024/02/17 10:15:57;;;;;;;23.73;11.50;;;;;;;10.21;100.00;102976.13;5083446;28;20074;-85
2024/02/17 10:18:23;;;;;;;23.80;11.15;;;;;;;10.37;100.00;102977.66;5064939;28;20047;-86
2024/02/17 10:20:48;;;;;;;25.10;11.88;;;;;;;10.44;100.00;102983.25;5080951;28;20572;-86
2024/02/17 10:23:14;;;;;;;23.95;12.07;;;;;;;10.57;100.00;102974.06;5085381;28;20036;-86
2024/02/17 10:25:40;;;;;;;23.75;11.90;;;;;;;10.77;100.00;102974.78;5082774;28;20028;-85
2024/02/17 10:28:06;;;;;;;25.58;12.23;;;;;;;11.03;100.00;102980.16;5085455;28;20074;-86
2024/02/17 10:30:33;;;;;;;24.50;11.40;;;;;;;11.04;100.00;102979.31;5056469;28;20024;-86
2024/02/17 10:32:58;;;;;;;23.75;11.63;;;;;;;11.14;100.00;102976.16;5082856;28;20079;-86
2024/02/17 10:35:24;;;;;;;23.90;11.60;;;;;;;11.07;100.00;102982.06;5083634;28;20020;-86
2024/02/17 10:37:51;;;;;;;23.85;12.15;;;;;;;11.12;100.00;102990.16;5084877;28;20028;-83
2024/02/17 10:40:17;;;;;;;24.08;11.75;;;;;;;11.18;100.00;102989.50;5088944;28;20524;-86
2024/02/17 10:42:44;;;;;;;23.27;11.82;;;;;;;11.15;100.00;102991.19;5085306;28;20060;-80
2024/02/17 10:45:09;;;;;;;22.50;11.30;;;;;;;11.07;100.00;102999.72;5088011;28;20056;-84
2024/02/17 10:47:37;;;;;;;23.52;11.82;;;;;;;11.04;100.00;103004.84;5084416;28;20510;-78
2024/02/17 10:50:20;;;;;;;24.27;12.45;;;;;;;11.27;100.00;103003.03;5085729;28;20131;-71
2024/02/17 10:52:48;;;;;;;23.63;11.38;;;;;;;11.25;100.00;103004.75;5084385;28;20063;-74
2024/02/17 10:55:14;;;;;;;22.90;11.95;;;;;;;11.13;100.00;103007.88;5084401;28;20044;-72
2024/02/17 10:57:44;;;;;;;23.60;11.75;;;;;;;10.99;100.00;103013.56;5087748;28;20061;-74
2024/02/17 11:00:11;;;;;;;24.50;12.27;;;;;;;10.95;100.00;103016.00;5084379;28;20025;-74
2024/02/17 11:02:39;;;;;;;25.92;12.45;;;;;;;10.98;100.00;103029.38;5086941;28;20131;-73
2024/02/17 11:05:05;;;;;;;24.00;12.05;;;;;;;11.04;100.00;103024.31;5083877;28;20029;-72
2024/02/17 11:07:32;;;;;;;23.63;12.07;;;;;;;11.04;100.00;103021.66;5065706;28;20032;-74